WEATHER/FLIGHT PLANNING

Hattiesburg Radar

 

 

 

 

Weather Links

Flight Planning Links

 

METAR

2018/11/12 17:38 KHBG 121738Z AUTO 35005KT 1 1/4SM BR OVC003 15/14 A2996 RMK AO2 T01500144

TAF

2018/11/12 18:42 TAF KHBG 121740Z 1218/1318 05007KT 6SM RA VCTS OVC005CB TEMPO 1218/1219 2SM +TSRA FM122000 36007KT 6SM SHRA OVC005 FM131300 35011KT 6SM -DZ BR OVC005